createdAt,value
2023-04-10T00:00:22.249Z,7.05
2023-04-10T00:00:46.304Z,6.95
2023-04-10T00:01:09.038Z,7.10
2023-04-10T00:01:35.841Z,7.00
2023-04-10T00:01:58.812Z,7.07
2023-04-10T00:02:21.849Z,6.82
2023-04-10T00:02:45.139Z,6.97
2023-04-10T00:03:08.461Z,7.05
2023-04-10T00:03:31.782Z,7.03
2023-04-10T00:03:55.236Z,6.88
2023-04-10T00:04:19.290Z,6.80
2023-04-10T00:04:42.672Z,6.80
2023-04-10T00:05:10.009Z,6.85
2023-04-10T00:05:32.929Z,6.80
2023-04-10T00:05:55.866Z,7.15
2023-04-10T00:06:18.661Z,7.03
2023-04-10T00:06:42.143Z,6.90
2023-04-10T00:07:05.083Z,6.82
2023-04-10T00:07:27.924Z,6.65
2023-04-10T00:07:51.226Z,7.15
2023-04-10T00:08:14.116Z,6.75
2023-04-10T00:08:36.969Z,7.20
2023-04-10T00:08:59.843Z,6.88
2023-04-10T00:09:22.654Z,6.95
2023-04-10T00:09:45.865Z,7.15
2023-04-10T00:10:09.307Z,7.20
2023-04-10T00:10:34.521Z,7.03
2023-04-10T00:10:57.547Z,6.80
2023-04-10T00:11:20.479Z,7.25
2023-04-10T00:11:43.326Z,6.95
2023-04-10T00:12:06.984Z,7.32
2023-04-10T00:12:29.944Z,6.60
2023-04-10T00:12:54.319Z,6.80
2023-04-10T00:13:17.420Z,6.82
2023-04-10T00:13:40.334Z,7.68
2023-04-10T00:14:04.724Z,7.50
2023-04-10T00:14:27.423Z,7.05
2023-04-10T00:14:50.509Z,7.20
2023-04-10T00:15:13.625Z,7.65
2023-04-10T00:15:36.498Z,7.47
2023-04-10T00:15:59.319Z,7.10
2023-04-10T00:16:22.359Z,7.20
2023-04-10T00:16:45.265Z,7.18
2023-04-10T00:17:08.104Z,7.10
2023-04-10T00:17:31.087Z,7.40
2023-04-10T00:17:55.659Z,7.18
2023-04-10T00:18:18.702Z,7.13
2023-04-10T00:18:43.776Z,7.18
2023-04-10T00:19:08.384Z,7.43
2023-04-10T00:19:31.228Z,7.20
2023-04-10T00:19:54.299Z,7.20
2023-04-10T00:20:17.390Z,7.57
2023-04-10T00:20:40.847Z,7.20
2023-04-10T00:21:03.873Z,7.45
2023-04-10T00:21:27.304Z,7.38
2023-04-10T00:21:50.114Z,7.50
2023-04-10T00:22:12.850Z,7.22
2023-04-10T00:22:35.662Z,7.15
2023-04-10T00:22:58.583Z,7.70
2023-04-10T00:23:21.542Z,7.55
2023-04-10T00:23:44.442Z,7.30
2023-04-10T00:24:07.284Z,7.45
2023-04-10T00:24:30.618Z,8.02
2023-04-10T00:24:55.748Z,7.82
2023-04-10T00:25:18.804Z,7.40
2023-04-10T00:25:41.658Z,7.30
2023-04-10T00:26:04.525Z,7.40
2023-04-10T00:26:27.446Z,7.53
2023-04-10T00:26:50.315Z,7.07
2023-04-10T00:27:13.245Z,7.05
2023-04-10T00:27:36.173Z,7.07
2023-04-10T00:27:59.007Z,7.80
2023-04-10T00:28:21.893Z,7.68
2023-04-10T00:28:45.008Z,7.18
2023-04-10T00:29:09.364Z,7.22
2023-04-10T00:29:32.159Z,6.93
2023-04-10T00:29:54.928Z,7.20
2023-04-10T00:30:17.707Z,7.65
2023-04-10T00:30:40.866Z,7.30
2023-04-10T00:31:03.697Z,7.60
2023-04-10T00:31:29.723Z,7.50
2023-04-10T00:31:52.612Z,7.60
2023-04-10T00:32:15.965Z,7.18
2023-04-10T00:32:38.994Z,7.32
2023-04-10T00:33:01.896Z,7.57
2023-04-10T00:33:24.769Z,7.55
2023-04-10T00:33:47.466Z,7.28
2023-04-10T00:34:12.654Z,7.18
2023-04-10T00:34:35.579Z,7.15
2023-04-10T00:34:58.454Z,7.10
2023-04-10T00:35:21.488Z,7.28
2023-04-10T00:35:46.798Z,7.50
2023-04-10T00:36:09.754Z,7.50
2023-04-10T00:36:33.204Z,7.35
2023-04-10T00:36:56.638Z,7.35
2023-04-10T00:37:21.566Z,6.90
2023-04-10T00:37:44.340Z,7.03
2023-04-10T00:38:07.253Z,7.35
2023-04-10T00:38:30.013Z,7.30
2023-04-10T00:38:55.218Z,7.68
2023-04-10T00:39:18.101Z,7.70
2023-04-10T00:39:43.309Z,7.45
2023-04-10T00:40:08.032Z,7.25
2023-04-10T00:40:30.797Z,7.35
2023-04-10T00:40:53.540Z,6.95
2023-04-10T00:41:18.938Z,7.03
2023-04-10T00:41:41.699Z,7.50
2023-04-10T00:42:09.516Z,7.78
2023-04-10T00:42:32.436Z,7.40
2023-04-10T00:42:55.566Z,7.07
2023-04-10T00:43:20.396Z,7.10
2023-04-10T00:43:44.048Z,7.72
2023-04-10T00:44:08.896Z,7.35
2023-04-10T00:44:31.795Z,7.75
2023-04-10T00:44:54.741Z,8.05
2023-04-10T00:45:17.823Z,7.35
2023-04-10T00:45:40.891Z,6.97
2023-04-10T00:46:07.239Z,7.40
2023-04-10T00:46:30.329Z,7.07
2023-04-10T00:46:56.539Z,7.00
2023-04-10T00:47:19.579Z,7.28
2023-04-10T00:47:42.922Z,7.60
2023-04-10T00:48:05.915Z,7.57
2023-04-10T00:48:34.724Z,7.38
2023-04-10T00:48:57.623Z,7.40
2023-04-10T00:49:22.112Z,7.25
2023-04-10T00:49:45.003Z,7.18
2023-04-10T00:50:08.270Z,7.28
2023-04-10T00:50:31.124Z,7.65
2023-04-10T00:50:53.946Z,7.55
2023-04-10T00:51:16.644Z,7.70
2023-04-10T00:51:39.372Z,7.25
2023-04-10T00:52:02.096Z,7.32
2023-04-10T00:52:25.123Z,7.70
2023-04-10T00:52:48.501Z,7.75
2023-04-10T00:53:11.263Z,7.32
2023-04-10T00:53:34.061Z,7.32
2023-04-10T00:53:57.074Z,7.57
2023-04-10T00:54:20.338Z,7.55
2023-04-10T00:54:43.074Z,7.32
2023-04-10T00:55:07.292Z,7.18
2023-04-10T00:55:30.377Z,7.32
2023-04-10T00:55:53.147Z,7.80
2023-04-10T00:56:18.372Z,7.15
2023-04-10T00:56:41.147Z,6.80
2023-04-10T00:57:04.918Z,6.85
2023-04-10T00:57:28.549Z,6.90
2023-04-10T00:57:51.548Z,7.00
2023-04-10T00:58:14.892Z,7.55
2023-04-10T00:58:37.617Z,7.13
2023-04-10T00:59:04.091Z,6.95
2023-04-10T00:59:29.692Z,7.30
2023-04-10T00:59:53.340Z,6.95
2023-04-10T01:00:16.523Z,7.30
2023-04-10T01:00:39.500Z,7.25
2023-04-10T01:01:04.032Z,7.68
2023-04-10T01:01:26.869Z,7.28
2023-04-10T01:01:49.781Z,7.55
2023-04-10T01:02:13.671Z,7.50
2023-04-10T01:02:36.937Z,7.00
2023-04-10T01:03:01.816Z,7.25
2023-04-10T01:03:25.192Z,6.80
2023-04-10T01:03:48.258Z,7.20
2023-04-10T01:04:11.894Z,7.07
2023-04-10T01:04:34.909Z,6.90
2023-04-10T01:04:57.792Z,7.40
2023-04-10T01:05:23.262Z,7.13
2023-04-10T01:05:51.710Z,7.00
2023-04-10T01:06:19.768Z,7.65
2023-04-10T01:06:50.975Z,7.60
2023-04-10T01:07:19.142Z,7.18
2023-04-10T01:07:55.057Z,7.15
2023-04-10T01:08:22.642Z,7.05
2023-04-10T01:08:52.271Z,7.00
2023-04-10T01:09:17.891Z,7.05
2023-04-10T01:09:44.994Z,7.00
2023-04-10T01:10:13.982Z,7.07
2023-04-10T01:10:41.208Z,7.43
2023-04-10T01:11:07.396Z,7.63
2023-04-10T01:11:38.717Z,7.07
2023-04-10T01:12:07.092Z,7.20
2023-04-10T01:12:39.549Z,7.32
2023-04-10T01:13:07.135Z,6.88
2023-04-10T01:13:33.437Z,7.55
2023-04-10T01:14:01.519Z,7.25
2023-04-10T01:14:31.200Z,7.47
2023-04-10T01:14:58.599Z,7.13
2023-04-10T01:15:22.906Z,7.53
2023-04-10T01:15:48.182Z,7.53
2023-04-10T01:16:19.904Z,7.47
2023-04-10T01:16:46.718Z,7.85
2023-04-10T01:17:12.482Z,7.20
2023-04-10T01:17:38.989Z,7.53
2023-04-10T01:18:04.312Z,7.70
2023-04-10T01:18:30.734Z,7.65
2023-04-10T01:18:55.580Z,7.40
2023-04-10T01:19:26.327Z,7.55
2023-04-10T01:20:03.104Z,7.65
2023-04-10T01:20:27.696Z,7.80
2023-04-10T01:20:50.639Z,7.00
2023-04-10T01:21:13.488Z,7.22
2023-04-10T01:21:36.693Z,7.40
2023-04-10T01:21:59.684Z,7.35
2023-04-10T01:22:22.533Z,7.20
2023-04-10T01:22:57.327Z,7.50
2023-04-10T01:23:43.779Z,7.35
2023-04-10T01:24:18.867Z,7.35
2023-04-10T01:24:50.748Z,7.30
2023-04-10T01:25:40.911Z,7.60
2023-04-10T01:26:04.503Z,7.72
2023-04-10T01:26:37.496Z,7.70
2023-04-10T01:27:10.944Z,7.80
2023-04-10T01:27:41.289Z,7.20
2023-04-10T01:28:12.523Z,7.20
2023-04-10T01:28:56.577Z,7.60
2023-04-10T01:29:20.537Z,7.53
2023-04-10T01:29:47.105Z,7.55
2023-04-10T01:30:11.241Z,7.78
2023-04-10T01:30:34.806Z,7.82
2023-04-10T01:30:58.490Z,7.70
2023-04-10T01:31:25.003Z,7.95
2023-04-10T01:31:51.573Z,8.02
2023-04-10T01:32:15.882Z,8.07
2023-04-10T01:32:38.593Z,7.93
2023-04-10T01:33:01.623Z,7.55
2023-04-10T01:33:26.904Z,7.72
2023-04-10T01:33:51.505Z,7.93
2023-04-10T01:34:18.292Z,7.85
2023-04-10T01:34:43.592Z,7.55
2023-04-10T01:35:08.046Z,7.60
2023-04-10T01:35:31.800Z,7.35
2023-04-10T01:35:56.552Z,7.50
2023-04-10T01:36:21.602Z,8.20
2023-04-10T01:36:52.287Z,7.78
2023-04-10T01:37:17.779Z,7.72
2023-04-10T01:37:43.853Z,7.75
2023-04-10T01:38:07.345Z,7.85
2023-04-10T01:38:30.044Z,7.78
2023-04-10T01:38:52.990Z,7.95
2023-04-10T01:39:17.237Z,7.65
2023-04-10T01:39:41.342Z,7.93
2023-04-10T01:40:07.282Z,7.80
2023-04-10T01:40:30.236Z,7.47
2023-04-10T01:40:53.795Z,7.60
2023-04-10T01:41:16.555Z,7.93
2023-04-10T01:41:39.379Z,7.88
2023-04-10T01:42:02.645Z,7.97
2023-04-10T01:42:25.482Z,8.15
2023-04-10T01:42:52.027Z,7.80
2023-04-10T01:43:14.730Z,7.72
2023-04-10T01:43:37.490Z,7.93
2023-04-10T01:44:04.839Z,7.65
2023-04-10T01:44:29.518Z,8.23
2023-04-10T01:44:52.410Z,7.70
2023-04-10T01:45:18.329Z,7.60
2023-04-10T01:45:42.265Z,7.70
2023-04-10T01:46:05.582Z,7.45
2023-04-10T01:46:28.444Z,8.00
2023-04-10T01:46:52.637Z,7.82
2023-04-10T01:47:17.332Z,8.07
2023-04-10T01:47:40.155Z,7.82
2023-04-10T01:48:05.249Z,7.72
2023-04-10T01:48:28.056Z,7.80
2023-04-10T01:48:50.735Z,8.07
2023-04-10T01:49:13.536Z,8.05
2023-04-10T01:49:37.559Z,8.15
2023-04-10T01:50:00.539Z,7.85
2023-04-10T01:50:28.092Z,7.90
2023-04-10T01:50:51.027Z,8.00
2023-04-10T01:51:14.499Z,8.38
2023-04-10T01:51:37.191Z,8.45
2023-04-10T01:52:02.408Z,7.97
2023-04-10T01:52:25.800Z,7.70
2023-04-10T01:52:48.577Z,7.55
2023-04-10T01:53:11.377Z,7.85
2023-04-10T01:53:36.573Z,7.63
2023-04-10T01:54:01.985Z,7.78
2023-04-10T01:54:25.201Z,7.82
2023-04-10T01:54:52.021Z,8.15
2023-04-10T01:55:14.969Z,8.00
2023-04-10T01:55:38.426Z,8.05
2023-04-10T01:56:03.187Z,8.05
2023-04-10T01:56:26.555Z,8.10
2023-04-10T01:56:49.328Z,7.70
2023-04-10T01:57:15.283Z,7.15
2023-04-10T01:57:38.082Z,7.75
2023-04-10T01:58:01.101Z,7.82
2023-04-10T01:58:26.089Z,7.65
2023-04-10T01:58:48.852Z,8.02
2023-04-10T01:59:13.164Z,7.38
2023-04-10T01:59:38.198Z,8.00
2023-04-10T02:00:01.113Z,8.40
2023-04-10T02:00:24.205Z,7.97
2023-04-10T02:00:47.132Z,8.20
2023-04-10T02:01:42.048Z,8.20
2023-04-10T02:02:07.801Z,7.72
2023-04-10T02:02:32.372Z,8.30
2023-04-10T02:02:55.589Z,7.88
2023-04-10T02:03:21.918Z,8.10
2023-04-10T02:03:45.033Z,7.80
2023-04-10T02:04:10.486Z,7.68
2023-04-10T02:04:33.593Z,7.85
2023-04-10T02:04:58.668Z,8.18
2023-04-10T02:05:22.436Z,8.30
2023-04-10T02:05:53.179Z,8.20
2023-04-10T02:06:18.945Z,8.25
2023-04-10T02:06:44.621Z,8.10
2023-04-10T02:07:09.161Z,7.93
2023-04-10T02:07:36.518Z,8.55
2023-04-10T02:08:02.562Z,8.55
2023-04-10T02:08:27.312Z,8.00
2023-04-10T02:08:53.494Z,8.50
2023-04-10T02:09:19.470Z,8.40
2023-04-10T02:09:50.935Z,8.35
2023-04-10T02:10:17.003Z,8.27
2023-04-10T02:10:43.942Z,8.48
2023-04-10T02:11:11.670Z,8.15
2023-04-10T02:11:40.348Z,8.10
2023-04-10T02:12:05.317Z,8.77
2023-04-10T02:12:30.516Z,8.30
2023-04-10T02:12:55.912Z,8.35
2023-04-10T02:13:20.167Z,7.70
2023-04-10T02:13:42.906Z,8.40
2023-04-10T02:14:08.346Z,8.75
2023-04-10T02:14:33.078Z,8.32
2023-04-10T02:14:56.486Z,8.38
2023-04-10T02:15:19.538Z,8.18
2023-04-10T02:15:44.027Z,8.38
2023-04-10T02:16:09.063Z,7.97
2023-04-10T02:16:32.019Z,8.70
2023-04-10T02:16:55.556Z,8.25
2023-04-10T02:17:22.121Z,8.50
2023-04-10T02:17:47.280Z,7.97
2023-04-10T02:18:10.761Z,8.95
2023-04-10T02:18:34.152Z,8.65
2023-04-10T02:18:57.614Z,8.60
2023-04-10T02:19:22.526Z,8.45
2023-04-10T02:19:48.988Z,8.27
2023-04-10T02:20:12.022Z,8.52
2023-04-10T02:20:34.814Z,8.48
2023-04-10T02:20:57.720Z,8.43
2023-04-10T02:21:20.860Z,8.50
2023-04-10T02:21:44.218Z,8.40
2023-04-10T02:22:06.964Z,8.77
2023-04-10T02:22:31.947Z,8.60
2023-04-10T02:22:54.696Z,8.75
2023-04-10T02:23:17.601Z,8.65
2023-04-10T02:23:40.567Z,8.48
2023-04-10T02:24:03.425Z,8.80
2023-04-10T02:24:26.466Z,8.48
2023-04-10T02:24:49.416Z,8.70
2023-04-10T02:25:14.340Z,8.85
2023-04-10T02:25:37.135Z,9.00
2023-04-10T02:26:05.649Z,8.88
2023-04-10T02:26:28.646Z,8.82
2023-04-10T02:26:52.725Z,8.82
2023-04-10T02:27:16.660Z,8.48
2023-04-10T02:27:40.426Z,8.32
2023-04-10T02:28:04.786Z,8.82
2023-04-10T02:28:27.645Z,8.60
2023-04-10T02:28:50.442Z,9.02
2023-04-10T02:29:13.286Z,9.30
2023-04-10T02:29:37.513Z,9.07
2023-04-10T02:30:02.538Z,8.43
2023-04-10T02:30:25.447Z,8.65
2023-04-10T02:30:48.306Z,8.65
2023-04-10T02:31:11.310Z,8.82
2023-04-10T02:31:34.055Z,8.57
2023-04-10T02:31:56.866Z,8.68
2023-04-10T02:32:19.740Z,9.43
2023-04-10T02:32:43.112Z,9.13
2023-04-10T02:33:05.984Z,9.10
2023-04-10T02:33:28.861Z,9.52
2023-04-10T02:33:51.938Z,9.02
2023-04-10T02:34:17.168Z,9.02
2023-04-10T02:34:39.847Z,9.32
2023-04-10T02:35:03.203Z,9.27
2023-04-10T02:35:26.591Z,9.30
2023-04-10T02:35:50.300Z,9.57
2023-04-10T02:36:13.022Z,9.30
2023-04-10T02:36:39.534Z,9.43
2023-04-10T02:37:02.291Z,9.23
2023-04-10T02:37:24.995Z,9.00
2023-04-10T02:37:47.770Z,9.30
2023-04-10T02:38:10.505Z,9.30
2023-04-10T02:38:33.212Z,8.93
2023-04-10T02:38:56.174Z,9.43
2023-04-10T02:39:18.991Z,9.68
2023-04-10T02:39:41.951Z,9.63
2023-04-10T02:40:09.120Z,9.70
2023-04-10T02:40:31.909Z,8.80
2023-04-10T02:40:54.677Z,9.40
2023-04-10T02:41:17.351Z,9.60
2023-04-10T02:41:40.060Z,9.20
2023-04-10T02:42:05.279Z,9.10
2023-04-10T02:42:28.017Z,9.25
2023-04-10T02:42:51.048Z,9.52
2023-04-10T02:43:13.821Z,9.27
2023-04-10T02:43:36.561Z,9.10
2023-04-10T02:43:59.371Z,9.00
2023-04-10T02:44:22.143Z,9.00
2023-04-10T02:44:47.236Z,8.75
2023-04-10T02:45:10.905Z,9.30
2023-04-10T02:45:33.752Z,9.30
2023-04-10T02:45:57.271Z,9.38
2023-04-10T02:46:19.999Z,9.20
2023-04-10T02:46:42.987Z,9.38
2023-04-10T02:47:06.481Z,9.40
2023-04-10T02:47:29.325Z,9.13
2023-04-10T02:47:52.233Z,8.95
2023-04-10T02:48:15.262Z,9.23
2023-04-10T02:48:38.011Z,9.10
2023-04-10T02:49:01.330Z,9.23
2023-04-10T02:49:24.146Z,9.82
2023-04-10T02:49:47.392Z,9.27
2023-04-10T02:50:11.529Z,9.55
2023-04-10T02:50:34.349Z,9.52
2023-04-10T02:50:57.921Z,8.95
2023-04-10T02:51:20.652Z,9.00
2023-04-10T02:51:43.410Z,9.38
2023-04-10T02:52:06.291Z,9.45
2023-04-10T02:52:29.027Z,9.40
2023-04-10T02:52:51.752Z,8.95
2023-04-10T02:53:16.346Z,9.32
2023-04-10T02:53:39.078Z,9.35
2023-04-10T02:54:01.750Z,9.48
2023-04-10T02:54:26.625Z,9.18
2023-04-10T02:54:49.372Z,9.45
2023-04-10T02:55:12.246Z,9.30
2023-04-10T02:55:34.962Z,8.95
2023-04-10T02:55:57.679Z,8.82
2023-04-10T02:56:21.058Z,9.13
2023-04-10T02:56:43.866Z,8.75
2023-04-10T02:57:07.071Z,8.90
2023-04-10T02:57:30.042Z,9.00
2023-04-10T02:57:52.817Z,9.63
2023-04-10T02:58:15.533Z,9.23
2023-04-10T02:58:38.599Z,8.90
2023-04-10T02:59:01.716Z,9.07
2023-04-10T02:59:24.448Z,8.90
2023-04-10T02:59:51.204Z,8.82
2023-04-10T03:00:14.746Z,8.70
2023-04-10T03:00:39.582Z,8.60
2023-04-10T03:01:02.312Z,8.65
2023-04-10T03:01:27.244Z,8.98
2023-04-10T03:01:52.572Z,9.38
2023-04-10T03:02:16.303Z,9.55
2023-04-10T03:02:39.399Z,8.95
2023-04-10T03:03:02.912Z,8.82
2023-04-10T03:03:26.144Z,9.27
2023-04-10T03:03:49.053Z,8.93
2023-04-10T03:04:11.921Z,8.90
2023-04-10T03:04:35.183Z,8.73
2023-04-10T03:04:58.209Z,8.65
2023-04-10T03:05:23.782Z,8.73
2023-04-10T03:05:49.501Z,8.68
2023-04-10T03:06:12.507Z,9.10
2023-04-10T03:06:37.633Z,8.98
2023-04-10T03:07:00.326Z,9.15
2023-04-10T03:07:23.109Z,9.07
2023-04-10T03:07:45.981Z,8.82
2023-04-10T03:08:08.792Z,8.38
2023-04-10T03:08:31.513Z,9.15
2023-04-10T03:08:54.218Z,9.10
2023-04-10T03:09:19.510Z,8.65
2023-04-10T03:09:42.269Z,8.63
2023-04-10T03:10:05.601Z,8.70
2023-04-10T03:10:29.291Z,8.55
2023-04-10T03:10:52.059Z,8.65
2023-04-10T03:11:17.210Z,8.85
2023-04-10T03:11:39.938Z,9.43
2023-04-10T03:12:03.045Z,8.85
2023-04-10T03:12:25.770Z,8.82
2023-04-10T03:12:49.125Z,9.02
2023-04-10T03:13:14.387Z,8.65
2023-04-10T03:13:37.127Z,9.30
2023-04-10T03:13:59.829Z,9.05
2023-04-10T03:14:23.515Z,9.02
2023-04-10T03:14:46.281Z,9.00
2023-04-10T03:15:12.156Z,9.30
2023-04-10T03:15:34.925Z,8.85
2023-04-10T03:15:57.783Z,8.80
2023-04-10T03:16:23.745Z,8.25
2023-04-10T03:16:47.900Z,9.32
2023-04-10T03:17:13.691Z,8.68
2023-04-10T03:17:36.472Z,8.05
2023-04-10T03:18:01.841Z,8.05
2023-04-10T03:18:24.710Z,8.07
2023-04-10T03:18:47.388Z,8.20
2023-04-10T03:19:10.224Z,7.53
2023-04-10T03:19:35.481Z,7.57
2023-04-10T03:19:58.405Z,7.97
2023-04-10T03:20:21.276Z,8.18
2023-04-10T03:20:46.551Z,8.00
2023-04-10T03:21:09.371Z,7.93
2023-04-10T03:21:35.133Z,8.07
2023-04-10T03:21:59.046Z,6.70
2023-04-10T03:22:23.976Z,7.38
2023-04-10T03:22:46.747Z,7.10
2023-04-10T03:23:09.536Z,7.32
2023-04-10T03:23:32.338Z,7.85
2023-04-10T03:23:55.290Z,7.95
2023-04-10T03:24:18.445Z,7.78
2023-04-10T03:24:41.387Z,7.75
2023-04-10T03:25:06.566Z,8.00
2023-04-10T03:25:31.889Z,7.47
2023-04-10T03:25:55.132Z,7.75
2023-04-10T03:26:20.386Z,7.45
2023-04-10T03:26:45.285Z,7.40
2023-04-10T03:27:08.016Z,7.78
2023-04-10T03:27:34.966Z,8.05
2023-04-10T03:27:57.950Z,7.80
2023-04-10T03:28:23.212Z,7.78
2023-04-10T03:28:48.856Z,8.50
2023-04-10T03:29:11.534Z,7.60
2023-04-10T03:29:34.247Z,8.23
2023-04-10T03:30:00.043Z,8.30
2023-04-10T03:30:24.406Z,7.93
2023-04-10T03:30:47.164Z,7.90
2023-04-10T03:31:12.666Z,7.68
2023-04-10T03:31:35.639Z,7.53
2023-04-10T03:32:00.617Z,7.32
2023-04-10T03:32:23.409Z,7.70
2023-04-10T03:32:46.195Z,7.40
2023-04-10T03:33:11.298Z,7.80
2023-04-10T03:33:34.025Z,7.47
2023-04-10T03:33:59.805Z,7.05
2023-04-10T03:34:22.620Z,7.22
2023-04-10T03:34:45.528Z,7.80
2023-04-10T03:35:12.043Z,7.55
2023-04-10T03:35:37.363Z,7.97
2023-04-10T03:36:00.333Z,7.38
2023-04-10T03:36:23.302Z,7.45
2023-04-10T03:36:46.891Z,7.45
2023-04-10T03:37:09.705Z,7.68
2023-04-10T03:37:34.925Z,7.50
2023-04-10T03:37:57.640Z,7.88
2023-04-10T03:38:20.656Z,7.68
2023-04-10T03:38:45.646Z,7.55
2023-04-10T03:39:08.570Z,7.60
2023-04-10T03:39:33.630Z,7.82
2023-04-10T03:39:58.815Z,8.10
2023-04-10T03:40:21.686Z,7.75
2023-04-10T03:40:46.846Z,7.68
2023-04-10T03:41:09.613Z,7.47
2023-04-10T03:41:35.326Z,7.63
2023-04-10T03:41:58.236Z,8.77
2023-04-10T03:42:23.290Z,8.90
2023-04-10T03:42:46.579Z,8.68
2023-04-10T03:43:09.317Z,9.48
2023-04-10T03:43:32.119Z,9.10
2023-04-10T03:43:55.228Z,9.23
2023-04-10T03:44:19.069Z,8.90
2023-04-10T03:44:41.746Z,8.90
2023-04-10T03:45:08.002Z,8.82
2023-04-10T03:45:32.165Z,8.98
2023-04-10T03:45:55.015Z,9.45
2023-04-10T03:46:17.772Z,9.45
2023-04-10T03:46:40.606Z,9.00
2023-04-10T03:47:03.399Z,8.55
2023-04-10T03:47:28.637Z,8.98
2023-04-10T03:47:52.188Z,9.30
2023-04-10T03:48:15.042Z,9.18
2023-04-10T03:48:37.871Z,9.30
2023-04-10T03:49:02.967Z,8.82
2023-04-10T03:49:25.739Z,9.35
2023-04-10T03:49:48.516Z,9.52
2023-04-10T03:50:13.693Z,9.68
2023-04-10T03:50:36.567Z,9.73
2023-04-10T03:50:59.387Z,9.63
2023-04-10T03:51:24.700Z,9.98
2023-04-10T03:51:47.922Z,10.40
2023-04-10T03:52:11.069Z,9.88
2023-04-10T03:52:33.715Z,9.82
2023-04-10T03:52:56.475Z,9.65
2023-04-10T03:53:19.231Z,9.15
2023-04-10T03:53:42.028Z,9.00
2023-04-10T03:54:04.918Z,9.90
2023-04-10T03:54:27.771Z,9.75
2023-04-10T03:54:52.975Z,8.95
2023-04-10T03:55:19.144Z,9.10
2023-04-10T03:55:42.243Z,9.20
2023-04-10T03:56:05.594Z,9.25
2023-04-10T03:56:28.309Z,9.18
2023-04-10T03:56:51.030Z,9.43
2023-04-10T03:57:13.755Z,9.70
2023-04-10T03:57:36.438Z,9.70
2023-04-10T03:57:59.235Z,9.13
2023-04-10T03:58:22.252Z,9.15
2023-04-10T03:58:45.275Z,9.82
2023-04-10T03:59:08.089Z,9.63
2023-04-10T03:59:38.220Z,8.80
2023-04-10T04:00:01.884Z,9.35
2023-04-10T04:00:24.810Z,9.70
2023-04-10T04:00:49.062Z,9.35
2023-04-10T04:01:11.766Z,9.32
2023-04-10T04:01:37.197Z,9.60
2023-04-10T04:01:59.956Z,8.65
2023-04-10T04:02:25.528Z,9.05
2023-04-10T04:02:50.998Z,9.07
2023-04-10T04:03:16.696Z,8.70
2023-04-10T04:03:39.868Z,9.30
2023-04-10T04:04:02.892Z,8.98
2023-04-10T04:04:26.808Z,8.82
2023-04-10T04:04:49.991Z,8.80
2023-04-10T04:05:13.048Z,8.32
2023-04-10T04:05:35.824Z,8.68
2023-04-10T04:05:58.681Z,8.45
2023-04-10T04:06:23.833Z,7.53
2023-04-10T04:06:48.747Z,7.57
2023-04-10T04:07:12.784Z,8.07
2023-04-10T04:07:35.619Z,7.90
2023-04-10T04:08:01.423Z,7.07
2023-04-10T04:08:24.159Z,7.35
2023-04-10T04:08:46.867Z,8.77
2023-04-10T04:09:09.613Z,8.85
2023-04-10T04:09:35.259Z,6.97
2023-04-10T04:10:00.304Z,6.63
2023-04-10T04:10:24.194Z,6.72
2023-04-10T04:10:47.173Z,6.45
2023-04-10T04:11:12.051Z,6.43
2023-04-10T04:11:35.015Z,6.85
2023-04-10T04:11:59.891Z,6.95
2023-04-10T04:12:22.637Z,7.03
2023-04-10T04:12:47.513Z,7.63
2023-04-10T04:13:10.410Z,7.78
2023-04-10T04:13:33.121Z,7.05
2023-04-10T04:13:56.277Z,6.88
2023-04-10T04:14:19.438Z,7.20
2023-04-10T04:14:43.383Z,7.13
2023-04-10T04:15:11.041Z,7.50
2023-04-10T04:15:33.839Z,8.65
2023-04-10T04:15:58.086Z,8.15
2023-04-10T04:16:23.817Z,7.05
2023-04-10T04:16:49.137Z,6.95
2023-04-10T04:17:11.858Z,6.93
2023-04-10T04:17:34.651Z,7.45
2023-04-10T04:18:00.887Z,8.07
2023-04-10T04:18:23.576Z,7.25
2023-04-10T04:18:48.425Z,7.03
2023-04-10T04:19:11.184Z,7.97
2023-04-10T04:19:34.225Z,8.70
2023-04-10T04:19:59.427Z,8.45
2023-04-10T04:20:22.409Z,8.88
2023-04-10T04:20:47.673Z,9.25
2023-04-10T04:21:10.419Z,8.43
2023-04-10T04:21:35.350Z,7.95
2023-04-10T04:22:00.558Z,8.13
2023-04-10T04:22:23.633Z,8.75
2023-04-10T04:22:46.727Z,7.53
2023-04-10T04:23:09.408Z,7.10
2023-04-10T04:23:35.205Z,6.50
2023-04-10T04:23:57.932Z,7.45
2023-04-10T04:24:22.885Z,7.18
2023-04-10T04:24:47.752Z,7.55
2023-04-10T04:25:11.804Z,8.02
2023-04-10T04:25:34.954Z,7.15
2023-04-10T04:25:57.923Z,8.07
2023-04-10T04:26:23.212Z,8.40
2023-04-10T04:26:49.190Z,8.30
2023-04-10T04:27:11.894Z,8.57
2023-04-10T04:27:36.873Z,9.15
2023-04-10T04:28:02.378Z,9.52
2023-04-10T04:28:25.296Z,9.30
2023-04-10T04:28:48.035Z,9.05
2023-04-10T04:29:11.058Z,9.10
2023-04-10T04:29:34.057Z,9.68
2023-04-10T04:29:58.977Z,9.57
2023-04-10T04:30:21.848Z,9.20
2023-04-10T04:30:44.645Z,9.57
2023-04-10T04:31:09.008Z,9.85
2023-04-10T04:31:32.906Z,8.60
2023-04-10T04:31:55.956Z,8.20
2023-04-10T04:32:18.927Z,7.60
2023-04-10T04:32:41.841Z,7.68
2023-04-10T04:33:07.140Z,7.40
2023-04-10T04:33:30.018Z,8.07
2023-04-10T04:33:55.247Z,7.45
2023-04-10T04:34:18.206Z,7.90
2023-04-10T04:34:43.420Z,8.50
2023-04-10T04:35:09.887Z,8.50
2023-04-10T04:35:32.687Z,8.68
2023-04-10T04:35:56.334Z,9.13
2023-04-10T04:36:19.137Z,9.52
2023-04-10T04:36:41.876Z,8.80
2023-04-10T04:37:05.607Z,8.73
2023-04-10T04:37:28.857Z,8.73
2023-04-10T04:37:51.561Z,8.93
2023-04-10T04:38:16.837Z,8.77
2023-04-10T04:38:39.566Z,8.63
2023-04-10T04:39:02.327Z,8.93
2023-04-10T04:39:25.143Z,9.10
2023-04-10T04:39:47.940Z,8.88
2023-04-10T04:40:12.009Z,9.07
2023-04-10T04:40:35.394Z,9.45
2023-04-10T04:40:58.259Z,9.23
2023-04-10T04:41:21.128Z,9.02
2023-04-10T04:41:43.914Z,9.25
2023-04-10T04:42:07.821Z,9.05
2023-04-10T04:42:31.254Z,8.90
2023-04-10T04:42:55.073Z,8.73
2023-04-10T04:43:17.934Z,8.95
2023-04-10T04:43:40.818Z,8.82
2023-04-10T04:44:03.621Z,8.98
2023-04-10T04:44:27.515Z,8.80
2023-04-10T04:44:52.781Z,8.38
2023-04-10T04:45:15.667Z,8.65
2023-04-10T04:45:40.974Z,8.55
2023-04-10T04:46:03.859Z,8.48
2023-04-10T04:46:30.348Z,7.78
2023-04-10T04:46:53.119Z,7.60
2023-04-10T04:47:18.451Z,7.88
2023-04-10T04:47:41.237Z,7.88
2023-04-10T04:48:04.192Z,8.05
2023-04-10T04:48:27.047Z,7.80
2023-04-10T04:48:51.952Z,7.40
2023-04-10T04:49:14.750Z,8.20
2023-04-10T04:49:37.494Z,7.72
2023-04-10T04:50:00.459Z,7.47
2023-04-10T04:50:23.199Z,7.28
2023-04-10T04:50:46.135Z,7.80
2023-04-10T04:51:11.133Z,7.82
2023-04-10T04:51:36.061Z,7.35
2023-04-10T04:51:58.899Z,7.10
2023-04-10T04:52:21.698Z,7.28
2023-04-10T04:52:44.614Z,7.18
2023-04-10T04:53:10.290Z,7.15
2023-04-10T04:53:32.976Z,7.20
2023-04-10T04:53:58.095Z,7.20
2023-04-10T04:54:20.964Z,7.03
2023-04-10T04:54:46.159Z,7.38
2023-04-10T04:55:10.210Z,6.82
2023-04-10T04:55:32.963Z,6.63
2023-04-10T04:55:58.151Z,6.75
2023-04-10T04:56:20.913Z,6.00
2023-04-10T04:56:43.673Z,5.50
2023-04-10T04:57:09.755Z,5.93
2023-04-10T04:57:32.454Z,6.03
2023-04-10T04:57:55.811Z,5.60
2023-04-10T04:58:20.740Z,6.18
2023-04-10T04:58:43.499Z,5.60
2023-04-10T04:59:06.391Z,5.28
2023-04-10T04:59:31.540Z,5.60
2023-04-10T04:59:54.516Z,5.72
2023-04-10T05:00:17.448Z,5.82
2023-04-10T05:00:40.276Z,5.90
2023-04-10T05:01:05.410Z,5.70
2023-04-10T05:01:29.722Z,5.50
2023-04-10T05:01:52.804Z,5.32
2023-04-10T05:02:16.967Z,5.90
2023-04-10T05:02:40.112Z,5.88
2023-04-10T05:03:03.310Z,5.95
2023-04-10T05:03:29.077Z,6.38
2023-04-10T05:03:52.292Z,6.53
2023-04-10T05:04:17.725Z,6.63
2023-04-10T05:04:42.800Z,6.60
2023-04-10T05:05:08.244Z,6.70
2023-04-10T05:05:31.108Z,6.25
2023-04-10T05:05:53.874Z,5.88
2023-04-10T05:06:18.890Z,6.20
2023-04-10T05:06:42.130Z,5.75
2023-04-10T05:07:04.860Z,5.53
2023-04-10T05:07:27.578Z,6.07
2023-04-10T05:07:50.904Z,6.40
2023-04-10T05:08:13.793Z,5.93
2023-04-10T05:08:36.553Z,5.47
2023-04-10T05:09:01.755Z,6.22
2023-04-10T05:09:24.514Z,6.65
2023-04-10T05:09:49.344Z,6.80
2023-04-10T05:10:12.067Z,6.75
2023-04-10T05:10:34.736Z,7.03
2023-04-10T05:10:57.587Z,6.70
2023-04-10T05:11:20.806Z,6.53
2023-04-10T05:11:43.536Z,6.82
2023-04-10T05:12:06.541Z,6.68
2023-04-10T05:12:29.318Z,6.60
2023-04-10T05:12:54.422Z,6.57
2023-04-10T05:13:17.706Z,6.25
2023-04-10T05:13:43.595Z,6.22
2023-04-10T05:14:06.797Z,6.57
2023-04-10T05:14:31.903Z,6.20
2023-04-10T05:14:54.598Z,6.40
2023-04-10T05:15:17.601Z,6.00
2023-04-10T05:15:40.389Z,6.00
2023-04-10T05:16:03.046Z,6.05
2023-04-10T05:16:26.402Z,6.03
2023-04-10T05:16:52.952Z,5.97
2023-04-10T05:17:16.965Z,6.28
2023-04-10T05:17:39.742Z,6.40
2023-04-10T05:18:02.676Z,6.53
2023-04-10T05:18:25.707Z,6.57
2023-04-10T05:18:48.503Z,6.35
2023-04-10T05:19:11.584Z,6.07
2023-04-10T05:19:34.336Z,6.53
2023-04-10T05:19:57.284Z,6.50
2023-04-10T05:20:22.570Z,6.53
2023-04-10T05:20:46.923Z,6.93
2023-04-10T05:21:09.603Z,6.35
2023-04-10T05:21:35.516Z,6.47